Time;durP1;ratioP1;P1;durP2;ratioP2;P2;SDS_P1;SDS_P2;PMS_P1;PMS_P2;Temp;Humidity;BMP_temperature;BMP_pressure;BME280_temperature;BME280_humidity;BME280_pressure;Samples;Min_cycle;Max_cycle;Signal;HPM_P1;HPM_P2
2021/09/05 06:40:33;;;;;;;5.43;3.95;;;;;;;;;;5071000;28;20159;-69
2021/09/05 06:42:59;;;;;;;5.65;4.03;;;;;;;;;;5072653;28;20029;-69
2021/09/05 06:45:25;;;;;;;9.27;4.38;;;;;;;;;;5072558;28;20499;-69
2021/09/05 06:47:51;;;;;;;8.60;3.80;;;;;;;;;;5072586;28;20029;-83
2021/09/05 06:50:18;;;;;;;5.05;4.10;;;;;;;;;;5072704;28;20044;-69
2021/09/05 06:52:44;;;;;;;4.60;3.70;;;;;;;;;;5072728;28;20033;-84
2021/09/05 06:55:10;;;;;;;7.75;4.25;;;;;;;;;;5074997;28;20043;-83
2021/09/05 06:57:36;;;;;;;5.45;3.83;;;;;;;;;;5076874;28;20366;-69
2021/09/05 07:00:02;;;;;;;4.50;3.60;;;;;;;;;;5076755;28;20037;-79
2021/09/05 07:02:28;;;;;;;7.10;4.10;;;;;;;;;;5076780;28;20035;-82
2021/09/05 07:04:54;;;;;;;5.60;3.72;;;;;;;;;;5076947;28;20056;-68
2021/09/05 07:07:20;;;;;;;6.75;3.75;;;;;;;;;;5076925;28;20068;-68
2021/09/05 07:09:47;;;;;;;6.55;4.28;;;;;;;;;;5076884;28;20040;-82
2021/09/05 07:12:13;;;;;;;7.18;4.03;;;;;;;;;;5076491;28;20044;-70
2021/09/05 07:14:39;;;;;;;10.05;3.85;;;;;;;;;;5076992;28;20035;-68
2021/09/05 07:17:05;;;;;;;5.78;4.10;;;;;;;;;;5076353;28;20104;-69
2021/09/05 07:19:31;;;;;;;6.35;3.70;;;;;;;;;;5076249;28;20480;-68
2021/09/05 07:21:57;;;;;;;5.65;3.65;;;;;;;;;;5076211;28;20044;-69
2021/09/05 07:24:23;;;;;;;6.63;4.13;;;;;;;;;;5076704;28;20028;-80
2021/09/05 07:26:49;;;;;;;9.63;3.85;;;;;;;;;;5076245;28;20029;-83
2021/09/05 07:29:18;;;;;;;4.63;3.78;;;;;;;;;;5076140;28;20040;-69
2021/09/05 07:31:44;;;;;;;5.28;4.05;;;;;;;;;;5076044;28;20040;-82
2021/09/05 07:34:10;;;;;;;6.72;4.00;;;;;;;;;;5075982;28;20036;-68
2021/09/05 07:36:36;;;;;;;5.15;3.53;;;;;;;;;;5076122;28;20040;-68
2021/09/05 07:39:03;;;;;;;5.22;3.88;;;;;;;;;;5077932;28;20075;-80
2021/09/05 07:41:29;;;;;;;7.78;3.60;;;;;;;;;;5096434;28;20044;-69
2021/09/05 07:43:55;;;;;;;4.13;3.45;;;;;;;;;;5096037;28;20039;-69
2021/09/05 07:46:21;;;;;;;6.38;4.20;;;;;;;;;;5095978;28;20032;-68
2021/09/05 07:48:47;;;;;;;5.78;4.13;;;;;;;;;;5095933;28;20094;-82
2021/09/05 07:51:13;;;;;;;6.32;4.00;;;;;;;;;;5096192;28;20112;-69
2021/09/05 07:53:39;;;;;;;5.00;3.47;;;;;;;;;;5096370;28;20036;-69
2021/09/05 07:56:06;;;;;;;4.53;3.47;;;;;;;;;;5095955;28;20035;-83
2021/09/05 07:58:32;;;;;;;6.03;3.80;;;;;;;;;;5096012;28;20107;-69
2021/09/05 08:00:58;;;;;;;4.68;3.63;;;;;;;;;;5095755;28;20515;-69
2021/09/05 08:03:24;;;;;;;7.65;3.97;;;;;;;;;;5095689;28;20553;-83
2021/09/05 08:05:50;;;;;;;4.30;3.90;;;;;;;;;;5094581;28;20036;-69
2021/09/05 08:08:19;;;;;;;7.20;3.60;;;;;;;;;;5095639;28;20039;-69
2021/09/05 08:10:45;;;;;;;6.95;3.78;;;;;;;;;;5095777;28;20028;-82
2021/09/05 08:13:11;;;;;;;5.38;4.00;;;;;;;;;;5095574;28;20485;-83
2021/09/05 08:15:37;;;;;;;6.72;4.00;;;;;;;;;;5095904;28;20101;-69
2021/09/05 08:18:03;;;;;;;5.85;3.80;;;;;;;;;;5095591;28;20125;-82
2021/09/05 08:20:29;;;;;;;8.07;4.25;;;;;;;;;;5095424;28;20047;-83
2021/09/05 08:22:55;;;;;;;7.07;3.90;;;;;;;;;;5095722;28;20063;-80
2021/09/05 08:25:21;;;;;;;4.15;3.75;;;;;;;;;;5095406;28;20028;-82
2021/09/05 08:27:47;;;;;;;8.18;3.67;;;;;;;;;;5095280;28;20404;-69
2021/09/05 08:30:13;;;;;;;7.63;3.80;;;;;;;;;;5095245;28;20032;-69
2021/09/05 08:32:39;;;;;;;8.20;3.80;;;;;;;;;;5095413;28;20028;-69
2021/09/05 08:35:05;;;;;;;6.85;3.72;;;;;;;;;;5095290;28;20035;-82
2021/09/05 08:37:31;;;;;;;10.32;3.80;;;;;;;;;;5095198;28;20063;-83
2021/09/05 08:39:57;;;;;;;5.65;4.05;;;;;;;;;;5078241;28;20049;-82
2021/09/05 08:42:24;;;;;;;7.30;3.50;;;;;;;;;;5074784;28;20039;-82
2021/09/05 08:44:50;;;;;;;5.57;3.53;;;;;;;;;;5074568;28;20094;-81
2021/09/05 08:47:17;;;;;;;5.10;3.78;;;;;;;;;;5074865;28;20040;-69
2021/09/05 08:49:43;;;;;;;5.72;3.55;;;;;;;;;;5074728;28;20039;-80
2021/09/05 08:52:10;;;;;;;4.15;3.75;;;;;;;;;;5074949;28;20039;-82
2021/09/05 08:54:36;;;;;;;5.85;3.70;;;;;;;;;;5074617;28;20118;-69
2021/09/05 08:57:02;;;;;;;5.18;3.53;;;;;;;;;;5074603;28;20040;-69
2021/09/05 08:59:29;;;;;;;7.97;4.28;;;;;;;;;;5074478;28;20024;-69
2021/09/05 09:01:56;;;;;;;7.50;4.10;;;;;;;;;;5074415;28;20047;-81
2021/09/05 09:04:24;;;;;;;4.65;3.40;;;;;;;;;;5074602;28;20111;-69
2021/09/05 09:06:50;;;;;;;4.50;3.58;;;;;;;;;;5074049;28;20029;-68
2021/09/05 09:09:16;;;;;;;5.57;3.63;;;;;;;;;;5074193;28;20083;-69
2021/09/05 09:11:49;;;;;;;5.97;3.63;;;;;;;;;;5074341;28;20138;-69
2021/09/05 09:14:15;;;;;;;7.95;3.58;;;;;;;;;;5074297;28;20032;-81
2021/09/05 09:16:41;;;;;;;6.07;3.58;;;;;;;;;;5074400;28;20043;-83
2021/09/05 09:19:07;;;;;;;7.40;3.45;;;;;;;;;;5074050;28;20032;-69
2021/09/05 09:21:38;;;;;;;8.23;3.80;;;;;;;;;;5073740;28;20540;-81
2021/09/05 09:24:12;;;;;;;8.15;3.85;;;;;;;;;;5073889;28;20397;-71
2021/09/05 09:26:39;;;;;;;3.90;3.38;;;;;;;;;;5073906;28;20119;-69
2021/09/05 09:29:15;;;;;;;6.70;3.70;;;;;;;;;;5073823;28;20035;-68
2021/09/05 09:31:41;;;;;;;7.90;3.50;;;;;;;;;;5074117;28;20040;-82
2021/09/05 09:34:07;;;;;;;4.43;3.00;;;;;;;;;;5074045;28;20037;-69
2021/09/05 09:36:33;;;;;;;8.98;3.75;;;;;;;;;;5073659;28;20051;-69
2021/09/05 09:39:00;;;;;;;5.50;3.30;;;;;;;;;;5081725;28;20051;-68
2021/09/05 09:41:30;;;;;;;4.35;3.13;;;;;;;;;;5093871;28;20052;-69
2021/09/05 09:44:00;;;;;;;6.68;3.75;;;;;;;;;;5093941;28;20043;-70
2021/09/05 09:46:28;;;;;;;7.13;3.40;;;;;;;;;;5093901;28;20082;-69
2021/09/05 09:48:55;;;;;;;6.40;3.35;;;;;;;;;;5093948;28;20423;-71
2021/09/05 09:51:21;;;;;;;3.70;3.20;;;;;;;;;;5093679;28;20028;-69
2021/09/05 09:53:48;;;;;;;6.93;3.53;;;;;;;;;;5093956;28;20036;-69
2021/09/05 09:56:18;;;;;;;4.68;3.30;;;;;;;;;;5093679;28;20102;-82
2021/09/05 09:58:54;;;;;;;7.50;3.75;;;;;;;;;;5094280;28;20385;-69
2021/09/05 10:01:21;;;;;;;4.97;3.25;;;;;;;;;;5093658;28;20055;-69
2021/09/05 10:03:48;;;;;;;4.10;3.50;;;;;;;;;;5093720;28;20031;-82
2021/09/05 10:06:14;;;;;;;6.32;3.28;;;;;;;;;;5093619;28;20043;-82
2021/09/05 10:08:41;;;;;;;10.25;3.65;;;;;;;;;;5093388;28;20036;-69
2021/09/05 10:11:09;;;;;;;8.10;3.50;;;;;;;;;;5093590;28;20032;-81
2021/09/05 10:13:36;;;;;;;8.07;3.17;;;;;;;;;;5093559;28;20119;-69
2021/09/05 10:16:02;;;;;;;7.70;3.50;;;;;;;;;;5093265;28;20036;-69
2021/09/05 10:18:29;;;;;;;4.53;3.47;;;;;;;;;;5093898;28;20038;-69
2021/09/05 10:20:56;;;;;;;4.28;3.30;;;;;;;;;;5093322;28;20078;-81
2021/09/05 10:23:33;;;;;;;4.07;3.10;;;;;;;;;;5093100;28;20039;-69
2021/09/05 10:26:12;;;;;;;4.15;3.47;;;;;;;;;;5093050;28;20114;-69
2021/09/05 10:28:45;;;;;;;5.63;3.03;;;;;;;;;;5092964;28;20111;-69
2021/09/05 10:31:12;;;;;;;8.73;3.22;;;;;;;;;;5093018;28;20557;-69
2021/09/05 10:33:39;;;;;;;4.47;3.00;;;;;;;;;;5093137;28;20028;-82
2021/09/05 10:36:11;;;;;;;8.27;3.55;;;;;;;;;;5093338;28;20039;-70
2021/09/05 10:38:41;;;;;;;4.05;3.08;;;;;;;;;;5092777;28;20412;-82
2021/09/05 10:41:09;;;;;;;5.93;2.88;;;;;;;;;;5093252;28;20043;-69
2021/09/05 10:43:51;;;;;;;6.18;3.20;;;;;;;;;;5093422;28;20491;-83
2021/09/05 10:46:17;;;;;;;4.10;3.33;;;;;;;;;;5093096;28;20028;-69
2021/09/05 10:48:56;;;;;;;8.77;3.53;;;;;;;;;;5093083;28;20032;-69
2021/09/05 10:51:23;;;;;;;5.70;3.38;;;;;;;;;;5093177;28;20047;-72
2021/09/05 10:53:49;;;;;;;4.15;3.60;;;;;;;;;;5093006;28;20067;-69
2021/09/05 10:56:16;;;;;;;8.10;3.22;;;;;;;;;;5092868;28;20036;-82
2021/09/05 10:58:57;;;;;;;4.40;3.15;;;;;;;;;;5090965;28;20126;-69
2021/09/05 11:01:23;;;;;;;7.30;3.28;;;;;;;;;;5089975;28;20036;-69
2021/09/05 11:04:08;;;;;;;7.53;3.20;;;;;;;;;;5091064;28;20082;-69
2021/09/05 11:06:34;;;;;;;5.80;3.15;;;;;;;;;;5093059;28;20040;-71
2021/09/05 11:09:18;;;;;;;3.78;2.88;;;;;;;;;;5093002;28;20033;-69
2021/09/05 11:11:55;;;;;;;4.80;2.97;;;;;;;;;;5092889;28;20043;-70
2021/09/05 11:14:45;;;;;;;8.40;3.17;;;;;;;;;;5093015;28;20119;-69
2021/09/05 11:17:16;;;;;;;6.47;3.30;;;;;;;;;;5081487;28;20119;-69
2021/09/05 11:19:43;;;;;;;4.88;3.50;;;;;;;;;;5092531;28;20025;-71
2021/09/05 11:22:11;;;;;;;3.90;3.00;;;;;;;;;;5092931;28;20044;-82
2021/09/05 11:24:37;;;;;;;7.05;3.22;;;;;;;;;;5089535;28;20423;-69
2021/09/05 11:27:04;;;;;;;4.07;3.30;;;;;;;;;;5089794;28;20046;-70
2021/09/05 11:29:30;;;;;;;5.43;3.03;;;;;;;;;;5090757;28;20032;-69
2021/09/05 11:32:00;;;;;;;7.07;3.00;;;;;;;;;;5092317;28;20477;-69
2021/09/05 11:34:26;;;;;;;9.63;4.05;;;;;;;;;;5092872;28;20054;-70
2021/09/05 11:36:52;;;;;;;6.47;3.58;;;;;;;;;;5092909;28;20423;-69
2021/09/05 11:39:18;;;;;;;4.68;3.40;;;;;;;;;;5092135;28;20508;-69
2021/09/05 11:41:44;;;;;;;3.63;2.88;;;;;;;;;;5095260;28;20040;-83
2021/09/05 11:44:10;;;;;;;6.63;3.40;;;;;;;;;;5096011;28;20032;-69
2021/09/05 11:46:36;;;;;;;6.38;3.53;;;;;;;;;;5095899;28;20131;-82
2021/09/05 11:49:03;;;;;;;4.93;3.15;;;;;;;;;;5096062;28;20063;-69
2021/09/05 11:51:30;;;;;;;5.63;3.30;;;;;;;;;;5096417;28;20036;-68
2021/09/05 11:54:02;;;;;;;3.92;3.10;;;;;;;;;;5096095;28;20035;-70
2021/09/05 11:56:29;;;;;;;8.05;2.90;;;;;;;;;;5096068;28;20166;-69
2021/09/05 11:58:56;;;;;;;6.95;3.15;;;;;;;;;;5096114;28;20166;-69
2021/09/05 12:01:22;;;;;;;6.72;2.85;;;;;;;;;;5095769;28;20036;-70
2021/09/05 12:03:49;;;;;;;7.07;3.33;;;;;;;;;;5096069;28;20090;-69
2021/09/05 12:06:15;;;;;;;3.80;2.80;;;;;;;;;;5096097;28;20083;-69
2021/09/05 12:08:45;;;;;;;6.00;3.20;;;;;;;;;;5095664;28;20491;-69
2021/09/05 12:11:12;;;;;;;4.60;2.97;;;;;;;;;;5095581;28;20086;-69
2021/09/05 12:13:50;;;;;;;4.45;3.03;;;;;;;;;;5095470;28;20117;-82
2021/09/05 12:16:20;;;;;;;5.35;3.40;;;;;;;;;;5095705;28;20423;-69
2021/09/05 12:18:58;;;;;;;7.57;3.33;;;;;;;;;;5095340;28;20397;-69
2021/09/05 12:21:31;;;;;;;4.80;3.55;;;;;;;;;;5095296;28;20127;-69
2021/09/05 12:23:58;;;;;;;4.68;3.05;;;;;;;;;;5095377;28;20047;-69
2021/09/05 12:26:24;;;;;;;5.35;4.05;;;;;;;;;;5095521;28;20383;-69
2021/09/05 12:29:09;;;;;;;4.38;3.17;;;;;;;;;;5095406;28;20036;-69
2021/09/05 12:31:42;;;;;;;5.13;3.65;;;;;;;;;;5095332;28;20036;-69
2021/09/05 12:34:08;;;;;;;4.43;3.30;;;;;;;;;;5095684;28;20048;-69
2021/09/05 12:36:34;;;;;;;4.18;3.03;;;;;;;;;;5095116;28;20078;-69
2021/09/05 12:39:00;;;;;;;6.45;3.75;;;;;;;;;;5095078;28;20044;-82
2021/09/05 12:41:30;;;;;;;7.32;3.25;;;;;;;;;;5095221;28;20044;-83
2021/09/05 12:43:57;;;;;;;6.80;3.00;;;;;;;;;;5095058;28;20063;-70
2021/09/05 12:46:35;;;;;;;4.13;3.30;;;;;;;;;;5095049;28;20036;-69
2021/09/05 12:49:09;;;;;;;6.78;3.50;;;;;;;;;;5094663;28;20039;-69
2021/09/05 12:51:45;;;;;;;6.50;3.30;;;;;;;;;;5094734;28;20044;-83
2021/09/05 12:54:12;;;;;;;3.72;3.00;;;;;;;;;;5094845;28;20043;-70
2021/09/05 12:56:40;;;;;;;4.25;3.38;;;;;;;;;;5095107;28;20074;-82
2021/09/05 12:59:06;;;;;;;3.17;2.88;;;;;;;;;;5094838;28;20039;-69
2021/09/05 13:01:32;;;;;;;3.50;3.20;;;;;;;;;;5094704;28;20057;-69
2021/09/05 13:03:59;;;;;;;5.10;3.08;;;;;;;;;;5094928;28;20028;-82
2021/09/05 13:06:26;;;;;;;4.40;2.92;;;;;;;;;;5094467;28;20040;-70
2021/09/05 13:08:53;;;;;;;5.07;3.30;;;;;;;;;;5094342;28;20064;-70
2021/09/05 13:11:20;;;;;;;6.55;3.42;;;;;;;;;;5094374;28;20040;-69
2021/09/05 13:13:46;;;;;;;3.53;3.05;;;;;;;;;;5094588;28;20395;-69
2021/09/05 13:16:13;;;;;;;4.20;3.30;;;;;;;;;;5094405;28;20544;-81
2021/09/05 13:18:39;;;;;;;9.05;3.50;;;;;;;;;;5094740;28;20032;-82
2021/09/05 13:21:06;;;;;;;5.30;2.88;;;;;;;;;;5094378;28;20051;-69
2021/09/05 13:23:32;;;;;;;4.10;3.13;;;;;;;;;;5094277;28;20066;-70
2021/09/05 13:25:58;;;;;;;4.22;3.10;;;;;;;;;;5094422;28;20075;-69
2021/09/05 13:28:26;;;;;;;5.22;3.40;;;;;;;;;;5094176;28;20032;-69
2021/09/05 13:30:52;;;;;;;5.32;3.22;;;;;;;;;;5094112;28;20044;-69
2021/09/05 13:33:18;;;;;;;6.15;3.38;;;;;;;;;;5094143;28;20571;-82
2021/09/05 13:35:44;;;;;;;6.63;3.45;;;;;;;;;;5094092;28;20067;-69
2021/09/05 13:38:10;;;;;;;4.78;3.47;;;;;;;;;;5093768;28;20107;-69
2021/09/05 13:40:36;;;;;;;4.65;3.08;;;;;;;;;;5093862;28;20051;-82
2021/09/05 13:43:03;;;;;;;3.38;2.92;;;;;;;;;;5093916;28;20051;-68
2021/09/05 13:45:29;;;;;;;5.53;3.30;;;;;;;;;;5094128;28;20119;-69
2021/09/05 13:47:55;;;;;;;4.30;2.67;;;;;;;;;;5093929;28;20028;-82
2021/09/05 13:50:21;;;;;;;6.05;3.08;;;;;;;;;;5093877;28;20127;-84
2021/09/05 13:52:47;;;;;;;3.97;3.53;;;;;;;;;;5093764;28;20020;-69
2021/09/05 13:55:13;;;;;;;4.47;3.22;;;;;;;;;;5094067;28;20035;-69
2021/09/05 13:57:39;;;;;;;6.85;3.00;;;;;;;;;;5093853;28;20032;-70
2021/09/05 14:00:05;;;;;;;4.00;2.92;;;;;;;;;;5093698;28;20048;-69
2021/09/05 14:02:31;;;;;;;6.45;3.20;;;;;;;;;;5093880;28;20036;-69
2021/09/05 14:04:57;;;;;;;5.20;3.20;;;;;;;;;;5092943;28;20041;-70
2021/09/05 14:07:23;;;;;;;3.80;3.20;;;;;;;;;;5093821;28;20468;-69
2021/09/05 14:09:50;;;;;;;3.92;3.10;;;;;;;;;;5093851;28;20128;-69
2021/09/05 14:12:16;;;;;;;5.57;3.25;;;;;;;;;;5093584;28;20032;-70
2021/09/05 14:14:43;;;;;;;4.38;3.20;;;;;;;;;;5093409;28;20035;-69
2021/09/05 14:17:09;;;;;;;4.80;3.00;;;;;;;;;;5093518;28;20036;-69
2021/09/05 14:19:36;;;;;;;7.43;3.28;;;;;;;;;;5093392;28;20036;-69
2021/09/05 14:22:02;;;;;;;4.88;3.50;;;;;;;;;;5093275;28;20130;-69
2021/09/05 14:24:28;;;;;;;5.07;3.13;;;;;;;;;;5093434;28;20036;-83
2021/09/05 14:26:58;;;;;;;3.30;2.80;;;;;;;;;;5093121;28;20158;-82
2021/09/05 14:29:30;;;;;;;3.08;2.78;;;;;;;;;;5093434;28;20043;-69
2021/09/05 14:34:47;;;;;;;3.33;3.03;;;;;;;;;;5093148;28;20039;-69
2021/09/05 14:55:49;;;;;;;6.22;3.25;;;;;;;;;;5093014;28;20111;-83
2021/09/05 14:58:15;;;;;;;9.40;3.25;;;;;;;;;;5093199;28;20477;-70
2021/09/05 15:00:42;;;;;;;5.15;3.20;;;;;;;;;;5093102;28;20097;-69
2021/09/05 15:11:07;;;;;;;3.60;3.05;;;;;;;;;;5093079;28;20039;-70
2021/09/05 15:13:34;;;;;;;8.77;3.38;;;;;;;;;;5093070;28;20111;-78
2021/09/05 15:16:00;;;;;;;4.45;2.97;;;;;;;;;;5094847;28;20115;-70
2021/09/05 15:18:27;;;;;;;7.13;3.00;;;;;;;;;;5096788;28;20032;-81
2021/09/05 15:20:53;;;;;;;5.30;3.15;;;;;;;;;;5096721;28;20047;-81
2021/09/05 15:23:22;;;;;;;3.63;3.17;;;;;;;;;;5096643;28;20040;-69
2021/09/05 15:25:48;;;;;;;6.10;3.35;;;;;;;;;;5096738;28;20040;-69
2021/09/05 15:28:31;;;;;;;4.30;3.55;;;;;;;;;;5096835;28;20032;-81
2021/09/05 15:34:21;;;;;;;;;;;;;;;;;;5097056;28;20039;-69
2021/09/05 15:54:42;;;;;;;4.10;3.17;;;;;;;;;;5095865;28;20047;-69
2021/09/05 15:57:08;;;;;;;5.78;3.03;;;;;;;;;;5096153;28;20405;-70
2021/09/05 16:02:26;;;;;;;4.90;3.50;;;;;;;;;;5096400;28;20526;-83
2021/09/05 16:17:59;;;;;;;8.25;3.38;;;;;;;;;;5095668;28;20438;-76
2021/09/05 16:20:25;;;;;;;6.75;4.47;;;;;;;;;;5095442;28;20078;-81
2021/09/05 16:22:51;;;;;;;6.28;3.90;;;;;;;;;;5095525;28;20039;-69
2021/09/05 16:25:17;;;;;;;7.28;3.65;;;;;;;;;;5095423;28;20036;-69
2021/09/05 16:27:47;;;;;;;5.80;3.97;;;;;;;;;;5094681;28;20024;-70
2021/09/05 16:30:22;;;;;;;7.10;3.88;;;;;;;;;;5095269;28;20044;-70
2021/09/05 16:40:34;;;;;;;6.75;3.67;;;;;;;;;;5095139;28;20043;-81
2021/09/05 16:43:01;;;;;;;5.28;3.92;;;;;;;;;;5095125;28;20050;-68
2021/09/05 16:45:27;;;;;;;12.00;4.68;;;;;;;;;;5095158;28;20381;-69
2021/09/05 16:47:54;;;;;;;5.82;3.90;;;;;;;;;;5095174;28;20082;-69
2021/09/05 16:50:21;;;;;;;5.43;3.50;;;;;;;;;;5094990;28;20036;-69
2021/09/05 16:52:47;;;;;;;5.57;3.88;;;;;;;;;;5094896;28;20043;-69
2021/09/05 16:55:13;;;;;;;9.02;3.72;;;;;;;;;;5094977;28;20198;-80
2021/09/05 16:57:40;;;;;;;4.25;3.65;;;;;;;;;;5095176;28;20484;-69
2021/09/05 17:00:07;;;;;;;5.93;3.88;;;;;;;;;;5094845;28;20032;-72
2021/09/05 17:02:33;;;;;;;5.47;4.20;;;;;;;;;;5094563;28;20488;-69
2021/09/05 17:04:59;;;;;;;5.35;3.95;;;;;;;;;;5094794;28;20033;-69
2021/09/05 17:07:25;;;;;;;6.72;3.70;;;;;;;;;;5095016;28;20123;-69
2021/09/05 17:09:51;;;;;;;4.75;3.60;;;;;;;;;;5094533;28;20119;-82
2021/09/05 17:12:17;;;;;;;6.07;3.63;;;;;;;;;;5094589;28;20528;-69
2021/09/05 17:14:43;;;;;;;6.85;3.88;;;;;;;;;;5094560;28;20028;-82
2021/09/05 17:17:10;;;;;;;5.00;3.70;;;;;;;;;;5094606;28;20032;-69
2021/09/05 17:19:36;;;;;;;4.82;3.80;;;;;;;;;;5094369;28;20036;-69
2021/09/05 17:22:02;;;;;;;5.93;3.40;;;;;;;;;;5094531;28;20040;-71
2021/09/05 17:24:29;;;;;;;10.77;4.78;;;;;;;;;;5094480;28;20047;-69
2021/09/05 17:26:58;;;;;;;13.35;4.55;;;;;;;;;;5094256;28;20093;-69
2021/09/05 17:29:24;;;;;;;5.13;3.47;;;;;;;;;;5094309;28;20085;-75
2021/09/05 17:31:50;;;;;;;7.95;3.95;;;;;;;;;;5094349;28;20393;-69
2021/09/05 17:34:16;;;;;;;4.95;3.50;;;;;;;;;;5094277;28;20033;-69
2021/09/05 17:36:44;;;;;;;5.63;3.67;;;;;;;;;;5093913;28;20029;-69
2021/09/05 17:39:10;;;;;;;7.18;3.78;;;;;;;;;;5093743;28;20047;-69
2021/09/05 17:41:36;;;;;;;8.40;3.80;;;;;;;;;;5094063;28;20036;-81
2021/09/05 17:44:03;;;;;;;7.43;3.78;;;;;;;;;;5094203;28;20067;-75
2021/09/05 17:46:29;;;;;;;7.65;3.85;;;;;;;;;;5094056;28;20519;-69
2021/09/05 17:48:56;;;;;;;4.28;3.60;;;;;;;;;;5093928;28;20028;-70
2021/09/05 17:51:22;;;;;;;5.65;3.75;;;;;;;;;;5093897;28;20082;-74
2021/09/05 17:53:48;;;;;;;6.65;3.78;;;;;;;;;;5093736;28;20420;-70
2021/09/05 17:56:14;;;;;;;5.72;4.18;;;;;;;;;;5093741;28;20442;-70
2021/09/05 17:58:40;;;;;;;5.40;3.47;;;;;;;;;;5094040;28;20032;-81
2021/09/05 18:01:06;;;;;;;5.13;3.83;;;;;;;;;;5093711;28;20052;-80
2021/09/05 18:03:32;;;;;;;6.95;3.80;;;;;;;;;;5093647;28;20043;-69
2021/09/05 18:05:58;;;;;;;7.70;3.50;;;;;;;;;;5093549;28;20132;-69
2021/09/05 18:08:24;;;;;;;5.82;3.83;;;;;;;;;;5093347;28;20032;-81
2021/09/05 18:10:50;;;;;;;9.45;3.85;;;;;;;;;;5093676;28;20138;-69
2021/09/05 18:13:17;;;;;;;3.97;3.63;;;;;;;;;;5093623;28;20032;-69
2021/09/05 18:15:44;;;;;;;5.13;4.15;;;;;;;;;;5093856;28;20537;-81
2021/09/05 18:18:10;;;;;;;4.45;3.72;;;;;;;;;;5093655;28;20028;-69
2021/09/05 18:20:36;;;;;;;5.32;3.90;;;;;;;;;;5093512;28;20150;-70
2021/09/05 18:23:03;;;;;;;7.40;4.00;;;;;;;;;;5093423;28;20028;-69
2021/09/05 18:25:29;;;;;;;5.43;3.45;;;;;;;;;;5093352;28;20035;-70
2021/09/05 18:27:55;;;;;;;4.10;3.42;;;;;;;;;;5093489;28;20442;-81
2021/09/05 18:30:24;;;;;;;6.05;3.67;;;;;;;;;;5093317;28;20077;-71
2021/09/05 18:32:51;;;;;;;7.15;4.10;;;;;;;;;;5093342;28;20400;-69
2021/09/05 18:35:17;;;;;;;6.03;4.30;;;;;;;;;;5093178;28;20034;-81
2021/09/05 18:37:43;;;;;;;4.60;3.80;;;;;;;;;;5093628;28;20472;-80
2021/09/05 18:40:10;;;;;;;8.55;4.35;;;;;;;;;;5092890;28;20533;-69
2021/09/05 18:42:36;;;;;;;9.80;4.20;;;;;;;;;;5093213;28;20496;-70
2021/09/05 18:45:02;;;;;;;6.90;3.95;;;;;;;;;;5093294;28;20484;-78
2021/09/05 18:47:29;;;;;;;4.63;4.13;;;;;;;;;;5093154;28;20154;-69
2021/09/05 18:49:55;;;;;;;6.57;4.03;;;;;;;;;;5075123;28;20033;-69
2021/09/05 18:52:21;;;;;;;4.90;3.35;;;;;;;;;;5097166;28;20036;-80
2021/09/05 18:54:47;;;;;;;5.47;3.67;;;;;;;;;;5097189;28;20036;-79
2021/09/05 18:57:13;;;;;;;4.20;3.80;;;;;;;;;;5097642;28;20392;-69
2021/09/05 18:59:40;;;;;;;5.82;3.80;;;;;;;;;;5097209;28;20036;-81
2021/09/05 19:02:06;;;;;;;10.40;4.30;;;;;;;;;;5097111;28;20458;-69
2021/09/05 19:04:33;;;;;;;6.22;4.10;;;;;;;;;;5097418;28;20373;-69
2021/09/05 19:06:59;;;;;;;4.72;3.72;;;;;;;;;;5097174;28;20446;-81
2021/09/05 19:09:25;;;;;;;4.57;3.72;;;;;;;;;;5096929;28;20036;-80
2021/09/05 19:11:51;;;;;;;4.18;3.75;;;;;;;;;;5097332;28;20040;-69
2021/09/05 19:14:17;;;;;;;4.50;3.55;;;;;;;;;;5096979;28;20060;-81
2021/09/05 19:16:44;;;;;;;8.23;3.63;;;;;;;;;;5096749;28;20036;-69
2021/09/05 19:19:10;;;;;;;5.03;4.07;;;;;;;;;;5096612;28;20525;-69
2021/09/05 19:21:36;;;;;;;6.80;4.10;;;;;;;;;;5096738;28;20078;-81
2021/09/05 19:24:02;;;;;;;8.75;4.00;;;;;;;;;;5096832;28;20040;-69
2021/09/05 19:26:28;;;;;;;7.05;3.97;;;;;;;;;;5096736;28;20495;-74
2021/09/05 19:28:55;;;;;;;6.30;3.85;;;;;;;;;;5096500;28;20123;-73
2021/09/05 19:31:21;;;;;;;7.20;3.92;;;;;;;;;;5097343;28;20036;-70
2021/09/05 19:33:47;;;;;;;6.18;4.00;;;;;;;;;;5096354;28;20032;-69
2021/09/05 19:36:16;;;;;;;5.25;4.00;;;;;;;;;;5096628;28;20112;-68
2021/09/05 19:38:43;;;;;;;6.25;4.07;;;;;;;;;;5096123;28;20084;-69
2021/09/05 19:41:09;;;;;;;4.90;3.75;;;;;;;;;;5096332;28;20040;-69
2021/09/05 19:43:35;;;;;;;8.32;4.72;;;;;;;;;;5096206;28;20435;-69
2021/09/05 19:46:05;;;;;;;7.63;4.10;;;;;;;;;;5096360;28;20427;-70
2021/09/05 19:48:31;;;;;;;5.68;3.60;;;;;;;;;;5096248;28;20039;-81
2021/09/05 19:50:57;;;;;;;7.55;4.25;;;;;;;;;;5096216;28;20039;-70
2021/09/05 19:53:23;;;;;;;7.00;4.00;;;;;;;;;;5096163;28;20032;-69
2021/09/05 19:55:49;;;;;;;6.22;3.85;;;;;;;;;;5096239;28;20036;-80
2021/09/05 19:58:15;;;;;;;6.65;3.88;;;;;;;;;;5095893;28;20032;-69
2021/09/05 20:00:42;;;;;;;5.90;3.50;;;;;;;;;;5096122;28;20500;-74
2021/09/05 20:03:08;;;;;;;8.85;3.83;;;;;;;;;;5094803;28;20050;-69
2021/09/05 20:05:34;;;;;;;6.47;4.63;;;;;;;;;;5095790;28;20031;-80
2021/09/05 20:08:01;;;;;;;5.47;3.90;;;;;;;;;;5096023;28;20036;-69
2021/09/05 20:10:27;;;;;;;5.95;3.67;;;;;;;;;;5095963;28;20044;-69
2021/09/05 20:12:54;;;;;;;4.30;3.88;;;;;;;;;;5095711;28;20032;-80
2021/09/05 20:15:20;;;;;;;5.70;4.03;;;;;;;;;;5095831;28;20090;-81
2021/09/05 20:17:46;;;;;;;4.25;3.85;;;;;;;;;;5095727;28;20036;-69
2021/09/05 20:20:13;;;;;;;7.00;4.00;;;;;;;;;;5095579;28;20492;-78
2021/09/05 20:22:39;;;;;;;4.43;3.80;;;;;;;;;;5095642;28;20527;-81
2021/09/05 20:25:07;;;;;;;5.20;3.90;;;;;;;;;;5095664;28;20028;-69
2021/09/05 20:27:34;;;;;;;6.85;3.80;;;;;;;;;;5095293;28;20036;-80
2021/09/05 20:30:00;;;;;;;6.25;3.67;;;;;;;;;;5095782;28;20107;-80
2021/09/05 20:32:27;;;;;;;5.93;4.20;;;;;;;;;;5095592;28;20036;-69
2021/09/05 20:34:53;;;;;;;5.05;3.85;;;;;;;;;;5095293;28;20028;-79
2021/09/05 20:37:19;;;;;;;7.30;4.03;;;;;;;;;;5095510;28;20040;-69
2021/09/05 20:39:45;;;;;;;5.15;3.75;;;;;;;;;;5095107;28;20492;-69
2021/09/05 20:42:11;;;;;;;6.15;4.25;;;;;;;;;;5095176;28;20087;-69
2021/09/05 20:44:37;;;;;;;8.05;4.13;;;;;;;;;;5094938;28;20055;-69
2021/09/05 20:47:04;;;;;;;6.65;4.22;;;;;;;;;;5095126;28;20032;-69
2021/09/05 20:49:30;;;;;;;5.53;4.20;;;;;;;;;;5095052;28;20047;-78
2021/09/05 20:52:02;;;;;;;6.72;4.10;;;;;;;;;;5095134;28;20578;-81
2021/09/05 20:54:28;;;;;;;6.13;4.40;;;;;;;;;;5094840;28;20055;-69
2021/09/05 20:56:54;;;;;;;5.75;4.03;;;;;;;;;;5076904;28;20393;-80
2021/09/05 20:59:20;;;;;;;6.95;3.97;;;;;;;;;;5094891;28;20374;-69
2021/09/05 21:01:46;;;;;;;5.53;3.83;;;;;;;;;;5094765;28;20036;-70
2021/09/05 21:04:12;;;;;;;5.85;4.28;;;;;;;;;;5094584;28;20040;-70
2021/09/05 21:06:39;;;;;;;4.95;4.13;;;;;;;;;;5094690;28;20481;-69
2021/09/05 21:09:05;;;;;;;4.75;4.15;;;;;;;;;;5094259;28;20031;-69
2021/09/05 21:11:31;;;;;;;7.05;4.20;;;;;;;;;;5094458;28;20036;-69
2021/09/05 21:13:57;;;;;;;6.82;4.13;;;;;;;;;;5094133;28;20106;-69
2021/09/05 21:16:23;;;;;;;5.43;3.95;;;;;;;;;;5094781;28;20096;-69
2021/09/05 21:18:49;;;;;;;4.78;4.20;;;;;;;;;;5094389;28;20055;-69
2021/09/05 21:21:16;;;;;;;5.25;4.20;;;;;;;;;;5094279;28;20040;-81
2021/09/05 21:23:42;;;;;;;5.70;4.47;;;;;;;;;;5094034;28;20032;-69
2021/09/05 21:26:08;;;;;;;7.10;4.25;;;;;;;;;;5094458;28;20032;-69
2021/09/05 21:28:34;;;;;;;6.15;3.85;;;;;;;;;;5094309;28;20036;-81
2021/09/05 21:31:00;;;;;;;5.72;4.65;;;;;;;;;;5094368;28;20043;-70
2021/09/05 21:33:26;;;;;;;5.47;4.15;;;;;;;;;;5093987;28;20039;-81
2021/09/05 21:35:52;;;;;;;4.63;3.80;;;;;;;;;;5094284;28;20393;-79
2021/09/05 21:38:18;;;;;;;5.95;4.28;;;;;;;;;;5094124;28;20501;-78
2021/09/05 21:40:44;;;;;;;5.40;3.88;;;;;;;;;;5094104;28;20573;-69
2021/09/05 21:43:10;;;;;;;5.82;3.83;;;;;;;;;;5093991;28;20028;-69
2021/09/05 21:45:37;;;;;;;5.57;4.18;;;;;;;;;;5093910;28;20027;-81
2021/09/05 21:48:07;;;;;;;7.07;3.85;;;;;;;;;;5093917;28;20515;-69
2021/09/05 21:50:33;;;;;;;4.30;3.70;;;;;;;;;;5093858;28;20421;-81
2021/09/05 21:52:59;;;;;;;6.25;4.32;;;;;;;;;;5093913;28;20089;-70
2021/09/05 21:55:25;;;;;;;4.97;4.40;;;;;;;;;;5093530;28;20086;-70
2021/09/05 21:57:51;;;;;;;6.60;4.00;;;;;;;;;;5094096;28;20488;-70
2021/09/05 22:00:17;;;;;;;5.43;4.40;;;;;;;;;;5093799;28;20039;-69
2021/09/05 22:02:43;;;;;;;6.60;4.20;;;;;;;;;;5093223;28;20074;-69
2021/09/05 22:05:10;;;;;;;8.13;4.18;;;;;;;;;;5093713;28;20381;-69
2021/09/05 22:07:36;;;;;;;8.80;4.85;;;;;;;;;;5093574;28;20493;-69
2021/09/05 22:10:02;;;;;;;5.97;4.43;;;;;;;;;;5093830;28;20028;-69
2021/09/05 22:12:28;;;;;;;4.53;3.95;;;;;;;;;;5093682;28;20047;-69
2021/09/05 22:14:54;;;;;;;4.80;3.72;;;;;;;;;;5093300;28;20028;-69
2021/09/05 22:17:20;;;;;;;8.93;4.78;;;;;;;;;;5093593;28;20040;-69
2021/09/05 22:19:47;;;;;;;6.63;4.25;;;;;;;;;;5093588;28;20032;-69
2021/09/05 22:22:13;;;;;;;8.50;4.50;;;;;;;;;;5093565;28;20528;-70
2021/09/05 22:24:39;;;;;;;8.73;4.75;;;;;;;;;;5092976;28;20028;-69
2021/09/05 22:27:05;;;;;;;7.00;4.57;;;;;;;;;;5093152;28;20038;-69
2021/09/05 22:29:31;;;;;;;7.72;4.47;;;;;;;;;;5093427;28;20036;-81
2021/09/05 22:31:57;;;;;;;6.00;4.65;;;;;;;;;;5093198;28;20040;-69
2021/09/05 22:34:24;;;;;;;7.32;4.20;;;;;;;;;;5093549;28;20035;-69
2021/09/05 22:36:50;;;;;;;11.40;4.50;;;;;;;;;;5093312;28;20036;-68